sensor_id;sensor_type;location;lat;lon;timestamp;P1;durP1;ratioP1;P2;durP2;ratioP2
18322;SDS011;9287;49.456;11.064;2023-05-24T00:00:11;4.70;;;2.80;;
18322;SDS011;9287;49.456;11.064;2023-05-24T00:02:41;4.20;;;2.17;;
18322;SDS011;9287;49.456;11.064;2023-05-24T00:05:12;4.33;;;2.20;;
18322;SDS011;9287;49.456;11.064;2023-05-24T00:07:42;4.37;;;2.60;;
18322;SDS011;9287;49.456;11.064;2023-05-24T00:10:12;6.47;;;2.53;;
18322;SDS011;9287;49.456;11.064;2023-05-24T00:12:40;6.07;;;2.40;;
18322;SDS011;9287;49.456;11.064;2023-05-24T00:15:12;3.67;;;2.83;;
18322;SDS011;9287;49.456;11.064;2023-05-24T00:17:41;4.83;;;2.50;;
18322;SDS011;9287;49.456;11.064;2023-05-24T00:20:10;4.63;;;2.93;;
18322;SDS011;9287;49.456;11.064;2023-05-24T00:22:40;5.70;;;2.87;;
18322;SDS011;9287;49.456;11.064;2023-05-24T00:25:08;5.40;;;2.93;;
18322;SDS011;9287;49.456;11.064;2023-05-24T00:27:36;7.90;;;2.60;;
18322;SDS011;9287;49.456;11.064;2023-05-24T00:30:05;4.90;;;2.37;;
18322;SDS011;9287;49.456;11.064;2023-05-24T00:32:35;7.40;;;3.20;;
18322;SDS011;9287;49.456;11.064;2023-05-24T00:35:03;8.20;;;2.63;;
18322;SDS011;9287;49.456;11.064;2023-05-24T00:37:32;6.27;;;3.07;;
18322;SDS011;9287;49.456;11.064;2023-05-24T00:40:00;8.23;;;3.13;;
18322;SDS011;9287;49.456;11.064;2023-05-24T00:42:32;11.13;;;3.23;;
18322;SDS011;9287;49.456;11.064;2023-05-24T00:45:00;5.67;;;3.37;;
18322;SDS011;9287;49.456;11.064;2023-05-24T00:47:28;4.87;;;3.90;;
18322;SDS011;9287;49.456;11.064;2023-05-24T00:49:57;5.90;;;3.00;;
18322;SDS011;9287;49.456;11.064;2023-05-24T00:52:25;5.37;;;2.97;;
18322;SDS011;9287;49.456;11.064;2023-05-24T00:54:53;9.73;;;3.27;;
18322;SDS011;9287;49.456;11.064;2023-05-24T00:57:21;5.20;;;2.80;;
18322;SDS011;9287;49.456;11.064;2023-05-24T00:59:50;3.83;;;3.00;;
18322;SDS011;9287;49.456;11.064;2023-05-24T01:02:18;6.67;;;2.83;;
18322;SDS011;9287;49.456;11.064;2023-05-24T01:04:46;5.63;;;3.10;;
18322;SDS011;9287;49.456;11.064;2023-05-24T01:07:17;5.77;;;2.93;;
18322;SDS011;9287;49.456;11.064;2023-05-24T01:09:56;6.60;;;2.63;;
18322;SDS011;9287;49.456;11.064;2023-05-24T01:12:35;7.30;;;2.30;;
18322;SDS011;9287;49.456;11.064;2023-05-24T01:15:15;11.87;;;3.17;;
18322;SDS011;9287;49.456;11.064;2023-05-24T01:17:50;7.03;;;2.83;;
18322;SDS011;9287;49.456;11.064;2023-05-24T01:20:27;4.37;;;2.97;;
18322;SDS011;9287;49.456;11.064;2023-05-24T01:28:54;6.13;;;2.97;;
18322;SDS011;9287;49.456;11.064;2023-05-24T01:31:22;10.13;;;2.83;;
18322;SDS011;9287;49.456;11.064;2023-05-24T01:33:50;6.73;;;2.93;;
18322;SDS011;9287;49.456;11.064;2023-05-24T01:36:18;7.43;;;3.10;;
18322;SDS011;9287;49.456;11.064;2023-05-24T01:38:46;4.83;;;3.10;;
18322;SDS011;9287;49.456;11.064;2023-05-24T01:41:17;8.50;;;2.80;;
18322;SDS011;9287;49.456;11.064;2023-05-24T01:44:00;7.73;;;3.20;;
18322;SDS011;9287;49.456;11.064;2023-05-24T01:46:34;9.67;;;3.07;;
18322;SDS011;9287;49.456;11.064;2023-05-24T01:49:09;10.60;;;3.00;;
18322;SDS011;9287;49.456;11.064;2023-05-24T01:51:49;7.30;;;2.70;;
18322;SDS011;9287;49.456;11.064;2023-05-24T01:54:22;6.87;;;2.63;;
18322;SDS011;9287;49.456;11.064;2023-05-24T01:56:52;6.10;;;2.70;;
18322;SDS011;9287;49.456;11.064;2023-05-24T01:59:23;4.20;;;3.00;;
18322;SDS011;9287;49.456;11.064;2023-05-24T02:01:52;6.90;;;2.80;;
18322;SDS011;9287;49.456;11.064;2023-05-24T02:04:21;8.93;;;3.03;;
18322;SDS011;9287;49.456;11.064;2023-05-24T02:06:50;7.43;;;2.87;;
18322;SDS011;9287;49.456;11.064;2023-05-24T02:09:20;9.90;;;2.93;;
18322;SDS011;9287;49.456;11.064;2023-05-24T02:11:48;5.10;;;2.33;;
18322;SDS011;9287;49.456;11.064;2023-05-24T02:14:17;8.43;;;3.17;;
18322;SDS011;9287;49.456;11.064;2023-05-24T02:16:47;7.23;;;2.67;;
18322;SDS011;9287;49.456;11.064;2023-05-24T02:19:16;6.83;;;2.50;;
18322;SDS011;9287;49.456;11.064;2023-05-24T02:21:44;7.00;;;3.07;;
18322;SDS011;9287;49.456;11.064;2023-05-24T02:24:14;8.13;;;2.73;;
18322;SDS011;9287;49.456;11.064;2023-05-24T02:26:43;7.90;;;2.63;;
18322;SDS011;9287;49.456;11.064;2023-05-24T02:29:11;6.30;;;2.67;;
18322;SDS011;9287;49.456;11.064;2023-05-24T02:31:40;7.07;;;2.70;;
18322;SDS011;9287;49.456;11.064;2023-05-24T02:34:09;7.57;;;2.93;;
18322;SDS011;9287;49.456;11.064;2023-05-24T02:36:37;9.70;;;2.53;;
18322;SDS011;9287;49.456;11.064;2023-05-24T02:39:05;6.77;;;2.40;;
18322;SDS011;9287;49.456;11.064;2023-05-24T02:41:32;9.13;;;2.30;;
18322;SDS011;9287;49.456;11.064;2023-05-24T02:44:00;9.77;;;2.00;;
18322;SDS011;9287;49.456;11.064;2023-05-24T02:46:28;6.00;;;2.90;;
18322;SDS011;9287;49.456;11.064;2023-05-24T02:48:57;9.57;;;2.67;;
18322;SDS011;9287;49.456;11.064;2023-05-24T02:51:26;9.40;;;2.77;;
18322;SDS011;9287;49.456;11.064;2023-05-24T02:53:54;7.30;;;2.47;;
18322;SDS011;9287;49.456;11.064;2023-05-24T02:56:24;10.57;;;2.77;;
18322;SDS011;9287;49.456;11.064;2023-05-24T02:58:53;7.40;;;2.33;;
18322;SDS011;9287;49.456;11.064;2023-05-24T03:01:21;8.80;;;1.80;;
18322;SDS011;9287;49.456;11.064;2023-05-24T03:03:49;8.87;;;2.20;;
18322;SDS011;9287;49.456;11.064;2023-05-24T03:06:17;6.20;;;2.00;;
18322;SDS011;9287;49.456;11.064;2023-05-24T03:08:48;9.43;;;2.90;;
18322;SDS011;9287;49.456;11.064;2023-05-24T03:11:16;8.73;;;1.90;;
18322;SDS011;9287;49.456;11.064;2023-05-24T03:13:47;8.13;;;1.97;;
18322;SDS011;9287;49.456;11.064;2023-05-24T03:16:16;7.43;;;2.27;;
18322;SDS011;9287;49.456;11.064;2023-05-24T03:18:45;4.67;;;1.93;;
18322;SDS011;9287;49.456;11.064;2023-05-24T03:21:19;8.33;;;2.83;;
18322;SDS011;9287;49.456;11.064;2023-05-24T03:23:50;6.50;;;2.33;;
18322;SDS011;9287;49.456;11.064;2023-05-24T03:26:18;8.80;;;2.67;;
18322;SDS011;9287;49.456;11.064;2023-05-24T03:28:46;6.87;;;2.50;;
18322;SDS011;9287;49.456;11.064;2023-05-24T03:31:15;6.47;;;2.23;;
18322;SDS011;9287;49.456;11.064;2023-05-24T03:33:47;7.37;;;2.50;;
18322;SDS011;9287;49.456;11.064;2023-05-24T03:36:17;7.20;;;2.60;;
18322;SDS011;9287;49.456;11.064;2023-05-24T03:38:47;6.80;;;3.03;;
18322;SDS011;9287;49.456;11.064;2023-05-24T03:41:16;7.63;;;2.97;;
18322;SDS011;9287;49.456;11.064;2023-05-24T03:43:45;9.47;;;3.07;;
18322;SDS011;9287;49.456;11.064;2023-05-24T03:46:13;7.47;;;3.23;;
18322;SDS011;9287;49.456;11.064;2023-05-24T03:48:41;8.23;;;3.30;;
18322;SDS011;9287;49.456;11.064;2023-05-24T03:51:09;6.87;;;2.87;;
18322;SDS011;9287;49.456;11.064;2023-05-24T03:53:37;13.00;;;3.27;;
18322;SDS011;9287;49.456;11.064;2023-05-24T03:56:06;11.80;;;3.20;;
18322;SDS011;9287;49.456;11.064;2023-05-24T03:58:35;6.83;;;2.67;;
18322;SDS011;9287;49.456;11.064;2023-05-24T04:01:06;9.43;;;2.77;;
18322;SDS011;9287;49.456;11.064;2023-05-24T04:03:41;7.93;;;2.80;;
18322;SDS011;9287;49.456;11.064;2023-05-24T04:06:18;8.93;;;3.10;;
18322;SDS011;9287;49.456;11.064;2023-05-24T04:08:48;10.73;;;3.13;;
18322;SDS011;9287;49.456;11.064;2023-05-24T04:11:19;8.97;;;3.03;;
18322;SDS011;9287;49.456;11.064;2023-05-24T04:13:50;7.40;;;3.27;;
18322;SDS011;9287;49.456;11.064;2023-05-24T04:16:21;7.77;;;2.77;;
18322;SDS011;9287;49.456;11.064;2023-05-24T04:18:52;9.27;;;3.43;;
18322;SDS011;9287;49.456;11.064;2023-05-24T04:21:20;7.60;;;2.47;;
18322;SDS011;9287;49.456;11.064;2023-05-24T04:23:50;7.60;;;2.80;;
18322;SDS011;9287;49.456;11.064;2023-05-24T04:26:19;10.20;;;3.07;;
18322;SDS011;9287;49.456;11.064;2023-05-24T04:28:47;8.13;;;3.63;;
18322;SDS011;9287;49.456;11.064;2023-05-24T04:31:18;9.57;;;3.23;;
18322;SDS011;9287;49.456;11.064;2023-05-24T04:33:47;10.90;;;3.23;;
18322;SDS011;9287;49.456;11.064;2023-05-24T04:36:16;8.23;;;2.90;;
18322;SDS011;9287;49.456;11.064;2023-05-24T04:38:47;5.93;;;2.80;;
18322;SDS011;9287;49.456;11.064;2023-05-24T04:41:17;4.83;;;2.23;;
18322;SDS011;9287;49.456;11.064;2023-05-24T04:43:45;8.67;;;3.23;;
18322;SDS011;9287;49.456;11.064;2023-05-24T04:46:13;8.77;;;2.97;;
18322;SDS011;9287;49.456;11.064;2023-05-24T04:48:42;8.63;;;3.20;;
18322;SDS011;9287;49.456;11.064;2023-05-24T04:51:12;7.33;;;2.70;;
18322;SDS011;9287;49.456;11.064;2023-05-24T04:53:41;9.40;;;2.70;;
18322;SDS011;9287;49.456;11.064;2023-05-24T04:56:09;7.50;;;2.50;;
18322;SDS011;9287;49.456;11.064;2023-05-24T04:58:42;11.37;;;3.67;;
18322;SDS011;9287;49.456;11.064;2023-05-24T05:01:13;8.23;;;2.93;;
18322;SDS011;9287;49.456;11.064;2023-05-24T05:03:42;9.47;;;3.23;;
18322;SDS011;9287;49.456;11.064;2023-05-24T05:06:13;6.50;;;2.83;;
18322;SDS011;9287;49.456;11.064;2023-05-24T05:08:41;6.57;;;2.50;;
18322;SDS011;9287;49.456;11.064;2023-05-24T05:11:09;8.20;;;2.97;;
18322;SDS011;9287;49.456;11.064;2023-05-24T05:13:40;5.70;;;2.53;;
18322;SDS011;9287;49.456;11.064;2023-05-24T05:16:09;9.17;;;3.23;;
18322;SDS011;9287;49.456;11.064;2023-05-24T05:18:37;7.67;;;2.57;;
18322;SDS011;9287;49.456;11.064;2023-05-24T05:21:08;8.57;;;2.30;;
18322;SDS011;9287;49.456;11.064;2023-05-24T05:23:37;4.93;;;2.07;;
18322;SDS011;9287;49.456;11.064;2023-05-24T05:26:05;8.03;;;2.47;;
18322;SDS011;9287;49.456;11.064;2023-05-24T05:28:34;7.93;;;2.47;;
18322;SDS011;9287;49.456;11.064;2023-05-24T05:31:05;5.33;;;2.20;;
18322;SDS011;9287;49.456;11.064;2023-05-24T05:33:33;6.23;;;2.30;;
18322;SDS011;9287;49.456;11.064;2023-05-24T05:36:02;7.90;;;2.27;;
18322;SDS011;9287;49.456;11.064;2023-05-24T05:38:32;8.80;;;2.30;;
18322;SDS011;9287;49.456;11.064;2023-05-24T05:41:00;4.77;;;2.17;;
18322;SDS011;9287;49.456;11.064;2023-05-24T05:43:29;7.40;;;2.63;;
18322;SDS011;9287;49.456;11.064;2023-05-24T05:45:57;5.37;;;2.57;;
18322;SDS011;9287;49.456;11.064;2023-05-24T05:48:27;5.73;;;1.73;;
18322;SDS011;9287;49.456;11.064;2023-05-24T05:50:57;11.63;;;2.40;;
18322;SDS011;9287;49.456;11.064;2023-05-24T05:53:25;6.10;;;2.23;;
18322;SDS011;9287;49.456;11.064;2023-05-24T05:55:54;5.20;;;1.90;;
18322;SDS011;9287;49.456;11.064;2023-05-24T05:58:25;6.03;;;2.10;;
18322;SDS011;9287;49.456;11.064;2023-05-24T06:00:53;8.03;;;2.27;;
18322;SDS011;9287;49.456;11.064;2023-05-24T06:03:21;6.33;;;2.17;;
18322;SDS011;9287;49.456;11.064;2023-05-24T06:05:50;7.93;;;2.13;;
18322;SDS011;9287;49.456;11.064;2023-05-24T06:08:17;5.83;;;2.23;;
18322;SDS011;9287;49.456;11.064;2023-05-24T06:10:46;5.57;;;2.37;;
18322;SDS011;9287;49.456;11.064;2023-05-24T06:13:19;5.97;;;1.77;;
18322;SDS011;9287;49.456;11.064;2023-05-24T06:15:47;7.17;;;2.03;;
18322;SDS011;9287;49.456;11.064;2023-05-24T06:18:15;9.20;;;2.03;;
18322;SDS011;9287;49.456;11.064;2023-05-24T06:20:43;6.90;;;1.97;;
18322;SDS011;9287;49.456;11.064;2023-05-24T06:23:12;5.67;;;1.83;;
18322;SDS011;9287;49.456;11.064;2023-05-24T06:25:40;12.00;;;2.03;;
18322;SDS011;9287;49.456;11.064;2023-05-24T06:28:09;9.07;;;2.37;;
18322;SDS011;9287;49.456;11.064;2023-05-24T06:30:38;8.07;;;2.13;;
18322;SDS011;9287;49.456;11.064;2023-05-24T06:33:06;7.17;;;1.97;;
18322;SDS011;9287;49.456;11.064;2023-05-24T06:35:34;12.10;;;2.57;;
18322;SDS011;9287;49.456;11.064;2023-05-24T06:38:01;8.13;;;1.83;;
18322;SDS011;9287;49.456;11.064;2023-05-24T06:40:29;7.67;;;2.57;;
18322;SDS011;9287;49.456;11.064;2023-05-24T06:42:57;6.10;;;1.97;;
18322;SDS011;9287;49.456;11.064;2023-05-24T06:45:25;6.83;;;1.97;;
18322;SDS011;9287;49.456;11.064;2023-05-24T06:47:55;9.07;;;1.97;;
18322;SDS011;9287;49.456;11.064;2023-05-24T06:50:23;6.40;;;1.83;;
18322;SDS011;9287;49.456;11.064;2023-05-24T06:52:52;10.33;;;2.10;;
18322;SDS011;9287;49.456;11.064;2023-05-24T06:55:20;10.17;;;2.50;;
18322;SDS011;9287;49.456;11.064;2023-05-24T06:57:48;10.17;;;2.33;;
18322;SDS011;9287;49.456;11.064;2023-05-24T07:00:17;5.17;;;1.70;;
18322;SDS011;9287;49.456;11.064;2023-05-24T07:02:45;8.90;;;2.00;;
18322;SDS011;9287;49.456;11.064;2023-05-24T07:05:15;7.70;;;1.93;;
18322;SDS011;9287;49.456;11.064;2023-05-24T07:07:43;7.73;;;2.27;;
18322;SDS011;9287;49.456;11.064;2023-05-24T07:10:10;9.13;;;2.13;;
18322;SDS011;9287;49.456;11.064;2023-05-24T07:12:38;6.27;;;1.80;;
18322;SDS011;9287;49.456;11.064;2023-05-24T07:15:08;10.00;;;2.20;;
18322;SDS011;9287;49.456;11.064;2023-05-24T07:17:36;8.53;;;2.23;;
18322;SDS011;9287;49.456;11.064;2023-05-24T07:20:04;5.93;;;1.73;;
18322;SDS011;9287;49.456;11.064;2023-05-24T07:22:36;6.90;;;2.47;;
18322;SDS011;9287;49.456;11.064;2023-05-24T07:25:05;9.03;;;2.40;;
18322;SDS011;9287;49.456;11.064;2023-05-24T07:27:33;8.93;;;1.93;;
18322;SDS011;9287;49.456;11.064;2023-05-24T07:30:01;7.87;;;2.40;;
18322;SDS011;9287;49.456;11.064;2023-05-24T07:32:33;6.47;;;2.30;;
18322;SDS011;9287;49.456;11.064;2023-05-24T07:35:01;8.77;;;1.90;;
18322;SDS011;9287;49.456;11.064;2023-05-24T07:37:29;11.07;;;2.27;;
18322;SDS011;9287;49.456;11.064;2023-05-24T07:39:58;4.33;;;1.37;;
18322;SDS011;9287;49.456;11.064;2023-05-24T07:42:25;5.57;;;2.17;;
18322;SDS011;9287;49.456;11.064;2023-05-24T07:44:53;7.77;;;2.23;;
18322;SDS011;9287;49.456;11.064;2023-05-24T07:47:21;10.50;;;2.67;;
18322;SDS011;9287;49.456;11.064;2023-05-24T07:49:49;4.37;;;2.03;;
18322;SDS011;9287;49.456;11.064;2023-05-24T07:52:17;6.47;;;1.47;;
18322;SDS011;9287;49.456;11.064;2023-05-24T07:54:45;7.63;;;2.47;;
18322;SDS011;9287;49.456;11.064;2023-05-24T07:57:14;8.43;;;2.00;;
18322;SDS011;9287;49.456;11.064;2023-05-24T07:59:43;4.33;;;1.70;;
18322;SDS011;9287;49.456;11.064;2023-05-24T08:02:10;10.20;;;2.60;;
18322;SDS011;9287;49.456;11.064;2023-05-24T08:04:38;5.93;;;1.80;;
18322;SDS011;9287;49.456;11.064;2023-05-24T08:07:07;11.23;;;2.13;;
18322;SDS011;9287;49.456;11.064;2023-05-24T08:09:36;4.70;;;1.60;;
18322;SDS011;9287;49.456;11.064;2023-05-24T08:12:05;7.63;;;2.20;;
18322;SDS011;9287;49.456;11.064;2023-05-24T08:14:34;8.03;;;2.30;;
18322;SDS011;9287;49.456;11.064;2023-05-24T08:17:02;6.80;;;2.20;;
18322;SDS011;9287;49.456;11.064;2023-05-24T08:19:30;6.63;;;1.80;;
18322;SDS011;9287;49.456;11.064;2023-05-24T08:22:01;7.70;;;2.37;;
18322;SDS011;9287;49.456;11.064;2023-05-24T08:24:30;7.83;;;2.10;;
18322;SDS011;9287;49.456;11.064;2023-05-24T08:26:58;5.10;;;2.20;;
18322;SDS011;9287;49.456;11.064;2023-05-24T08:29:26;7.33;;;1.70;;
18322;SDS011;9287;49.456;11.064;2023-05-24T08:31:55;6.80;;;2.10;;
18322;SDS011;9287;49.456;11.064;2023-05-24T08:34:23;7.10;;;2.17;;
18322;SDS011;9287;49.456;11.064;2023-05-24T08:36:51;6.90;;;2.20;;
18322;SDS011;9287;49.456;11.064;2023-05-24T08:39:19;8.60;;;2.43;;
18322;SDS011;9287;49.456;11.064;2023-05-24T08:41:47;6.43;;;2.17;;
18322;SDS011;9287;49.456;11.064;2023-05-24T08:44:34;14.27;;;2.50;;
18322;SDS011;9287;49.456;11.064;2023-05-24T08:47:07;7.23;;;1.93;;
18322;SDS011;9287;49.456;11.064;2023-05-24T08:49:36;10.03;;;2.27;;
18322;SDS011;9287;49.456;11.064;2023-05-24T08:52:04;9.03;;;2.20;;
18322;SDS011;9287;49.456;11.064;2023-05-24T08:54:34;9.57;;;2.93;;
18322;SDS011;9287;49.456;11.064;2023-05-24T08:57:03;8.83;;;2.30;;
18322;SDS011;9287;49.456;11.064;2023-05-24T08:59:33;6.50;;;1.80;;
18322;SDS011;9287;49.456;11.064;2023-05-24T09:02:01;7.70;;;2.13;;
18322;SDS011;9287;49.456;11.064;2023-05-24T09:04:32;7.87;;;2.37;;
18322;SDS011;9287;49.456;11.064;2023-05-24T09:07:02;4.87;;;1.97;;
18322;SDS011;9287;49.456;11.064;2023-05-24T09:09:30;7.60;;;2.70;;
18322;SDS011;9287;49.456;11.064;2023-05-24T09:12:02;8.80;;;2.67;;
18322;SDS011;9287;49.456;11.064;2023-05-24T09:14:31;9.77;;;2.17;;
18322;SDS011;9287;49.456;11.064;2023-05-24T09:16:59;6.93;;;2.00;;
18322;SDS011;9287;49.456;11.064;2023-05-24T09:19:29;8.07;;;2.57;;
18322;SDS011;9287;49.456;11.064;2023-05-24T09:21:58;9.33;;;2.40;;
18322;SDS011;9287;49.456;11.064;2023-05-24T09:24:27;9.37;;;2.00;;
18322;SDS011;9287;49.456;11.064;2023-05-24T09:26:55;8.60;;;2.33;;
18322;SDS011;9287;49.456;11.064;2023-05-24T09:29:34;7.40;;;2.23;;
18322;SDS011;9287;49.456;11.064;2023-05-24T09:32:01;4.40;;;2.10;;
18322;SDS011;9287;49.456;11.064;2023-05-24T09:34:37;9.07;;;2.20;;
18322;SDS011;9287;49.456;11.064;2023-05-24T09:37:06;5.53;;;1.93;;
18322;SDS011;9287;49.456;11.064;2023-05-24T09:39:39;9.43;;;2.50;;
18322;SDS011;9287;49.456;11.064;2023-05-24T09:42:08;7.43;;;2.47;;
18322;SDS011;9287;49.456;11.064;2023-05-24T09:44:41;9.83;;;2.23;;
18322;SDS011;9287;49.456;11.064;2023-05-24T09:47:09;7.10;;;2.17;;
18322;SDS011;9287;49.456;11.064;2023-05-24T09:49:38;5.93;;;2.10;;
18322;SDS011;9287;49.456;11.064;2023-05-24T09:52:07;7.03;;;1.77;;
18322;SDS011;9287;49.456;11.064;2023-05-24T09:54:35;7.77;;;2.50;;
18322;SDS011;9287;49.456;11.064;2023-05-24T09:57:03;8.60;;;2.50;;
18322;SDS011;9287;49.456;11.064;2023-05-24T09:59:32;7.90;;;2.17;;
18322;SDS011;9287;49.456;11.064;2023-05-24T10:02:07;7.47;;;2.73;;
18322;SDS011;9287;49.456;11.064;2023-05-24T10:04:39;9.33;;;1.83;;
18322;SDS011;9287;49.456;11.064;2023-05-24T10:07:10;8.87;;;1.70;;
18322;SDS011;9287;49.456;11.064;2023-05-24T10:09:38;10.30;;;2.60;;
18322;SDS011;9287;49.456;11.064;2023-05-24T10:12:07;5.63;;;2.17;;
18322;SDS011;9287;49.456;11.064;2023-05-24T10:14:35;5.77;;;2.00;;
18322;SDS011;9287;49.456;11.064;2023-05-24T10:17:06;5.30;;;2.90;;
18322;SDS011;9287;49.456;11.064;2023-05-24T10:19:39;7.30;;;2.17;;
18322;SDS011;9287;49.456;11.064;2023-05-24T10:22:07;11.40;;;2.90;;
18322;SDS011;9287;49.456;11.064;2023-05-24T10:24:39;6.97;;;1.87;;
18322;SDS011;9287;49.456;11.064;2023-05-24T10:27:13;9.07;;;2.43;;
18322;SDS011;9287;49.456;11.064;2023-05-24T10:29:47;7.90;;;1.90;;
18322;SDS011;9287;49.456;11.064;2023-05-24T10:32:25;7.43;;;2.20;;
18322;SDS011;9287;49.456;11.064;2023-05-24T10:34:57;11.13;;;2.60;;
18322;SDS011;9287;49.456;11.064;2023-05-24T10:37:27;4.97;;;2.27;;
18322;SDS011;9287;49.456;11.064;2023-05-24T10:39:57;8.53;;;2.23;;
18322;SDS011;9287;49.456;11.064;2023-05-24T10:42:25;4.93;;;1.67;;
18322;SDS011;9287;49.456;11.064;2023-05-24T10:44:55;6.13;;;2.70;;
18322;SDS011;9287;49.456;11.064;2023-05-24T10:47:24;7.03;;;2.03;;
18322;SDS011;9287;49.456;11.064;2023-05-24T10:49:55;13.63;;;2.47;;
18322;SDS011;9287;49.456;11.064;2023-05-24T10:52:32;6.10;;;2.07;;
18322;SDS011;9287;49.456;11.064;2023-05-24T10:55:03;2.80;;;1.43;;
18322;SDS011;9287;49.456;11.064;2023-05-24T10:57:33;7.33;;;2.10;;
18322;SDS011;9287;49.456;11.064;2023-05-24T11:03:01;4.93;;;1.93;;
18322;SDS011;9287;49.456;11.064;2023-05-24T11:05:34;4.67;;;1.73;;
18322;SDS011;9287;49.456;11.064;2023-05-24T11:08:03;6.43;;;1.20;;
18322;SDS011;9287;49.456;11.064;2023-05-24T11:10:36;6.37;;;1.73;;
18322;SDS011;9287;49.456;11.064;2023-05-24T11:13:06;6.43;;;1.90;;
18322;SDS011;9287;49.456;11.064;2023-05-24T11:15:34;6.50;;;1.90;;
18322;SDS011;9287;49.456;11.064;2023-05-24T11:18:14;4.27;;;1.70;;
18322;SDS011;9287;49.456;11.064;2023-05-24T11:20:46;6.07;;;1.93;;
18322;SDS011;9287;49.456;11.064;2023-05-24T11:23:15;4.57;;;1.60;;
18322;SDS011;9287;49.456;11.064;2023-05-24T11:25:45;4.83;;;1.73;;
18322;SDS011;9287;49.456;11.064;2023-05-24T11:28:13;5.30;;;1.97;;
18322;SDS011;9287;49.456;11.064;2023-05-24T11:30:42;6.80;;;1.60;;
18322;SDS011;9287;49.456;11.064;2023-05-24T11:33:14;10.33;;;2.07;;
18322;SDS011;9287;49.456;11.064;2023-05-24T11:35:45;6.50;;;1.60;;
18322;SDS011;9287;49.456;11.064;2023-05-24T11:38:14;10.47;;;3.13;;
18322;SDS011;9287;49.456;11.064;2023-05-24T11:40:45;9.03;;;1.67;;
18322;SDS011;9287;49.456;11.064;2023-05-24T11:43:17;3.83;;;1.90;;
18322;SDS011;9287;49.456;11.064;2023-05-24T11:45:47;6.87;;;2.03;;
18322;SDS011;9287;49.456;11.064;2023-05-24T11:48:17;9.67;;;2.30;;
18322;SDS011;9287;49.456;11.064;2023-05-24T11:50:46;5.57;;;1.60;;
18322;SDS011;9287;49.456;11.064;2023-05-24T11:53:16;3.00;;;1.60;;
18322;SDS011;9287;49.456;11.064;2023-05-24T11:55:46;4.67;;;1.80;;
18322;SDS011;9287;49.456;11.064;2023-05-24T11:58:18;7.17;;;1.83;;
18322;SDS011;9287;49.456;11.064;2023-05-24T12:00:50;4.90;;;1.90;;
18322;SDS011;9287;49.456;11.064;2023-05-24T12:03:18;4.83;;;2.13;;
18322;SDS011;9287;49.456;11.064;2023-05-24T12:05:47;10.33;;;2.30;;
18322;SDS011;9287;49.456;11.064;2023-05-24T12:08:14;12.57;;;2.30;;
18322;SDS011;9287;49.456;11.064;2023-05-24T12:10:42;4.07;;;1.63;;
18322;SDS011;9287;49.456;11.064;2023-05-24T12:13:21;4.33;;;1.67;;
18322;SDS011;9287;49.456;11.064;2023-05-24T12:15:52;4.70;;;1.60;;
18322;SDS011;9287;49.456;11.064;2023-05-24T12:18:23;5.53;;;1.50;;
18322;SDS011;9287;49.456;11.064;2023-05-24T12:20:52;4.20;;;1.57;;
18322;SDS011;9287;49.456;11.064;2023-05-24T12:23:21;5.10;;;1.70;;
18322;SDS011;9287;49.456;11.064;2023-05-24T12:25:56;8.53;;;1.70;;
18322;SDS011;9287;49.456;11.064;2023-05-24T12:28:26;3.70;;;1.63;;
18322;SDS011;9287;49.456;11.064;2023-05-24T12:30:54;3.93;;;1.53;;
18322;SDS011;9287;49.456;11.064;2023-05-24T12:33:22;4.97;;;1.73;;
18322;SDS011;9287;49.456;11.064;2023-05-24T12:35:51;3.00;;;1.60;;
18322;SDS011;9287;49.456;11.064;2023-05-24T12:38:19;8.33;;;1.80;;
18322;SDS011;9287;49.456;11.064;2023-05-24T12:40:50;7.53;;;1.67;;
18322;SDS011;9287;49.456;11.064;2023-05-24T12:43:39;5.53;;;1.90;;
18322;SDS011;9287;49.456;11.064;2023-05-24T12:46:09;7.43;;;1.70;;
18322;SDS011;9287;49.456;11.064;2023-05-24T12:48:39;6.60;;;1.57;;
18322;SDS011;9287;49.456;11.064;2023-05-24T12:51:07;7.17;;;1.80;;
18322;SDS011;9287;49.456;11.064;2023-05-24T12:53:35;6.90;;;1.67;;
18322;SDS011;9287;49.456;11.064;2023-05-24T12:56:03;3.33;;;1.27;;
18322;SDS011;9287;49.456;11.064;2023-05-24T12:58:30;5.20;;;1.67;;
18322;SDS011;9287;49.456;11.064;2023-05-24T13:01:00;3.27;;;1.23;;
18322;SDS011;9287;49.456;11.064;2023-05-24T13:03:28;4.60;;;1.50;;
18322;SDS011;9287;49.456;11.064;2023-05-24T13:05:56;2.57;;;1.43;;
18322;SDS011;9287;49.456;11.064;2023-05-24T13:08:24;5.80;;;1.60;;
18322;SDS011;9287;49.456;11.064;2023-05-24T13:10:53;3.70;;;1.57;;
18322;SDS011;9287;49.456;11.064;2023-05-24T13:13:22;7.27;;;1.30;;
18322;SDS011;9287;49.456;11.064;2023-05-24T13:15:50;5.60;;;1.87;;
18322;SDS011;9287;49.456;11.064;2023-05-24T13:18:19;4.33;;;1.80;;
18322;SDS011;9287;49.456;11.064;2023-05-24T13:20:47;6.03;;;1.77;;
18322;SDS011;9287;49.456;11.064;2023-05-24T13:23:16;6.63;;;2.00;;
18322;SDS011;9287;49.456;11.064;2023-05-24T13:25:44;6.20;;;1.70;;
18322;SDS011;9287;49.456;11.064;2023-05-24T13:28:12;4.10;;;1.60;;
18322;SDS011;9287;49.456;11.064;2023-05-24T13:30:40;5.77;;;1.70;;
18322;SDS011;9287;49.456;11.064;2023-05-24T13:33:08;8.17;;;1.93;;
18322;SDS011;9287;49.456;11.064;2023-05-24T13:35:37;4.63;;;1.60;;
18322;SDS011;9287;49.456;11.064;2023-05-24T13:38:06;5.10;;;1.90;;
18322;SDS011;9287;49.456;11.064;2023-05-24T13:40:34;4.43;;;1.80;;
18322;SDS011;9287;49.456;11.064;2023-05-24T13:43:06;4.93;;;1.90;;
18322;SDS011;9287;49.456;11.064;2023-05-24T13:45:34;3.60;;;2.33;;
18322;SDS011;9287;49.456;11.064;2023-05-24T13:48:02;12.17;;;2.00;;
18322;SDS011;9287;49.456;11.064;2023-05-24T13:50:31;6.77;;;2.10;;
18322;SDS011;9287;49.456;11.064;2023-05-24T13:53:01;6.60;;;1.73;;
18322;SDS011;9287;49.456;11.064;2023-05-24T13:55:30;7.80;;;2.00;;
18322;SDS011;9287;49.456;11.064;2023-05-24T13:57:59;4.80;;;1.63;;
18322;SDS011;9287;49.456;11.064;2023-05-24T14:00:30;3.67;;;2.03;;
18322;SDS011;9287;49.456;11.064;2023-05-24T14:02:58;5.60;;;1.77;;
18322;SDS011;9287;49.456;11.064;2023-05-24T14:05:26;6.00;;;1.83;;
18322;SDS011;9287;49.456;11.064;2023-05-24T14:07:55;3.53;;;2.20;;
18322;SDS011;9287;49.456;11.064;2023-05-24T14:10:27;4.53;;;2.20;;
18322;SDS011;9287;49.456;11.064;2023-05-24T14:12:55;4.43;;;1.70;;
18322;SDS011;9287;49.456;11.064;2023-05-24T14:15:43;4.70;;;2.10;;
18322;SDS011;9287;49.456;11.064;2023-05-24T14:18:12;5.33;;;2.30;;
18322;SDS011;9287;49.456;11.064;2023-05-24T14:20:40;7.53;;;2.20;;
18322;SDS011;9287;49.456;11.064;2023-05-24T14:23:08;6.47;;;2.03;;
18322;SDS011;9287;49.456;11.064;2023-05-24T14:25:37;5.40;;;1.83;;
18322;SDS011;9287;49.456;11.064;2023-05-24T14:28:07;3.80;;;1.80;;
18322;SDS011;9287;49.456;11.064;2023-05-24T14:30:35;10.27;;;3.07;;
18322;SDS011;9287;49.456;11.064;2023-05-24T14:33:04;4.20;;;2.70;;
18322;SDS011;9287;49.456;11.064;2023-05-24T14:35:33;5.03;;;2.20;;
18322;SDS011;9287;49.456;11.064;2023-05-24T14:38:05;5.53;;;2.27;;
18322;SDS011;9287;49.456;11.064;2023-05-24T14:40:34;4.03;;;2.23;;
18322;SDS011;9287;49.456;11.064;2023-05-24T14:43:05;7.37;;;2.20;;
18322;SDS011;9287;49.456;11.064;2023-05-24T14:45:35;4.63;;;2.60;;
18322;SDS011;9287;49.456;11.064;2023-05-24T14:48:07;3.23;;;2.40;;
18322;SDS011;9287;49.456;11.064;2023-05-24T14:50:38;5.57;;;2.57;;
18322;SDS011;9287;49.456;11.064;2023-05-24T14:53:07;3.17;;;1.73;;
18322;SDS011;9287;49.456;11.064;2023-05-24T14:55:38;4.67;;;2.13;;
18322;SDS011;9287;49.456;11.064;2023-05-24T14:58:11;3.47;;;2.50;;
18322;SDS011;9287;49.456;11.064;2023-05-24T15:00:42;10.80;;;2.30;;
18322;SDS011;9287;49.456;11.064;2023-05-24T15:03:12;4.67;;;2.63;;
18322;SDS011;9287;49.456;11.064;2023-05-24T15:05:41;7.37;;;2.63;;
18322;SDS011;9287;49.456;11.064;2023-05-24T15:08:09;5.90;;;2.90;;